createdAt,value
2018-12-06T00:00:23.724Z,2.90
2018-12-06T00:01:23.648Z,2.85
2018-12-06T00:02:23.564Z,2.79
2018-12-06T00:03:23.473Z,2.85
2018-12-06T00:04:23.386Z,2.87
2018-12-06T00:05:23.300Z,2.84
2018-12-06T00:06:23.212Z,2.81
2018-12-06T00:07:23.123Z,2.92
2018-12-06T00:08:23.037Z,2.87
2018-12-06T00:09:22.948Z,2.84
2018-12-06T00:10:22.862Z,2.78
2018-12-06T00:11:22.774Z,2.85
2018-12-06T00:12:22.687Z,2.87
2018-12-06T00:13:22.599Z,2.84
2018-12-06T00:14:22.513Z,2.89
2018-12-06T00:15:22.424Z,2.87
2018-12-06T00:16:22.338Z,2.79
2018-12-06T00:17:22.251Z,2.84
2018-12-06T00:18:22.174Z,2.82
2018-12-06T00:19:22.088Z,2.82
2018-12-06T00:20:22.000Z,2.79
2018-12-06T00:21:21.913Z,2.81
2018-12-06T00:22:21.825Z,2.77
2018-12-06T00:23:21.739Z,2.77
2018-12-06T00:24:21.650Z,2.82
2018-12-06T00:25:21.566Z,2.87
2018-12-06T00:26:21.489Z,2.87
2018-12-06T00:27:21.390Z,2.75
2018-12-06T00:28:21.301Z,2.78
2018-12-06T00:29:21.215Z,2.78
2018-12-06T00:30:21.126Z,2.75
2018-12-06T00:31:21.040Z,2.79
2018-12-06T00:32:20.954Z,2.78
2018-12-06T00:33:20.867Z,2.75
2018-12-06T00:34:20.778Z,2.77
2018-12-06T00:35:20.701Z,2.79
2018-12-06T00:36:20.616Z,2.75
2018-12-06T00:37:20.528Z,2.75
2018-12-06T00:38:20.440Z,2.75
2018-12-06T00:39:20.356Z,2.78
2018-12-06T00:40:20.266Z,2.78
2018-12-06T00:41:20.177Z,2.72
2018-12-06T00:42:20.090Z,2.71
2018-12-06T00:43:20.020Z,2.72
2018-12-06T00:44:19.917Z,2.71
2018-12-06T00:45:19.827Z,2.66
2018-12-06T00:46:19.741Z,2.67
2018-12-06T00:47:19.653Z,2.71
2018-12-06T00:48:19.608Z,2.69
2018-12-06T00:49:19.478Z,2.75
2018-12-06T00:50:19.391Z,2.75
2018-12-06T00:51:19.316Z,2.74
2018-12-06T00:52:19.228Z,2.77
2018-12-06T00:53:19.142Z,2.75
2018-12-06T00:54:19.056Z,2.75
2018-12-06T00:55:18.967Z,2.79
2018-12-06T00:56:18.880Z,2.87
2018-12-06T00:57:18.792Z,2.75
2018-12-06T00:58:18.704Z,2.89
2018-12-06T00:59:18.617Z,2.74
2018-12-06T01:00:18.529Z,2.77
2018-12-06T01:01:18.443Z,2.78
2018-12-06T01:02:18.367Z,2.81
2018-12-06T01:03:18.272Z,2.79
2018-12-06T01:04:18.179Z,2.79
2018-12-06T01:05:18.093Z,2.90
2018-12-06T01:06:18.009Z,2.82
2018-12-06T01:07:17.930Z,2.84
2018-12-06T01:08:17.843Z,2.79
2018-12-06T01:09:17.769Z,2.81
2018-12-06T01:10:17.671Z,2.84
2018-12-06T01:11:17.580Z,2.78
2018-12-06T01:12:17.499Z,2.79
2018-12-06T01:13:17.405Z,2.75
2018-12-06T01:14:17.319Z,2.81
2018-12-06T01:15:17.232Z,2.84
2018-12-06T01:16:17.144Z,2.81
2018-12-06T01:17:17.068Z,2.92
2018-12-06T01:18:16.969Z,2.85
2018-12-06T01:19:16.881Z,2.87
2018-12-06T01:20:16.803Z,2.82
2018-12-06T01:21:16.710Z,2.92
2018-12-06T01:22:16.631Z,2.79
2018-12-06T01:23:16.544Z,2.85
2018-12-06T01:24:16.470Z,2.79
2018-12-06T01:25:16.370Z,2.78
2018-12-06T01:26:16.286Z,2.81
2018-12-06T01:27:16.202Z,2.78
2018-12-06T01:28:16.110Z,2.79
2018-12-06T01:29:16.020Z,2.85
2018-12-06T01:30:15.938Z,2.84
2018-12-06T01:31:15.846Z,2.92
2018-12-06T01:32:15.758Z,2.82
2018-12-06T01:33:15.671Z,2.87
2018-12-06T01:34:15.582Z,2.92
2018-12-06T01:35:15.496Z,2.87
2018-12-06T01:36:15.422Z,2.89
2018-12-06T01:37:15.333Z,2.89
2018-12-06T01:38:15.246Z,2.89
2018-12-06T01:39:15.158Z,2.84
2018-12-06T01:40:15.071Z,2.90
2018-12-06T01:41:14.983Z,2.87
2018-12-06T01:42:14.896Z,2.96
2018-12-06T01:43:14.808Z,2.96
2018-12-06T01:44:14.721Z,2.92
2018-12-06T01:45:14.633Z,2.96
2018-12-06T01:46:14.547Z,2.89
2018-12-06T01:47:14.473Z,2.90
2018-12-06T01:48:14.373Z,2.90
2018-12-06T01:49:14.288Z,2.96
2018-12-06T01:50:14.201Z,2.89
2018-12-06T01:51:14.110Z,2.93
2018-12-06T01:52:14.034Z,2.96
2018-12-06T01:53:13.949Z,2.92
2018-12-06T01:54:13.872Z,2.89
2018-12-06T01:55:13.774Z,2.93
2018-12-06T01:56:13.685Z,2.90
2018-12-06T01:57:13.598Z,2.92
2018-12-06T01:58:13.510Z,2.95
2018-12-06T01:59:13.423Z,2.89
2018-12-06T02:00:13.336Z,2.85
2018-12-06T02:01:13.248Z,2.95
2018-12-06T02:02:13.167Z,2.90
2018-12-06T02:03:13.074Z,2.90
2018-12-06T02:04:12.987Z,2.93
2018-12-06T02:05:12.899Z,2.84
2018-12-06T02:06:12.811Z,2.87
2018-12-06T02:07:12.723Z,2.82
2018-12-06T02:08:12.650Z,2.82
2018-12-06T02:09:12.561Z,2.92
2018-12-06T02:10:12.475Z,2.82
2018-12-06T02:11:12.398Z,2.89
2018-12-06T02:12:12.299Z,2.87
2018-12-06T02:13:12.211Z,2.89
2018-12-06T02:14:12.125Z,2.90
2018-12-06T02:15:12.037Z,2.85
2018-12-06T02:16:11.950Z,2.89
2018-12-06T02:17:11.861Z,2.87
2018-12-06T02:18:11.776Z,2.90
2018-12-06T02:19:11.686Z,2.82
2018-12-06T02:20:11.608Z,2.92
2018-12-06T02:21:11.513Z,2.90
2018-12-06T02:22:11.429Z,2.85
2018-12-06T02:23:11.350Z,2.89
2018-12-06T02:24:11.262Z,2.89
2018-12-06T02:25:11.178Z,2.90
2018-12-06T02:26:11.087Z,2.87
2018-12-06T02:27:11.001Z,2.93
2018-12-06T02:28:10.912Z,2.90
2018-12-06T02:29:10.826Z,2.93
2018-12-06T02:30:10.752Z,2.90
2018-12-06T02:31:10.655Z,2.93
2018-12-06T02:32:10.563Z,2.95
2018-12-06T02:33:10.478Z,2.92
2018-12-06T02:34:10.390Z,2.90
2018-12-06T02:35:10.301Z,2.97
2018-12-06T02:36:10.214Z,2.89
2018-12-06T02:37:10.138Z,2.92
2018-12-06T02:38:10.073Z,2.99
2018-12-06T02:39:09.952Z,2.95
2018-12-06T02:40:09.880Z,2.96
2018-12-06T02:41:09.789Z,2.95
2018-12-06T02:42:09.732Z,2.99
2018-12-06T02:43:09.615Z,2.95
2018-12-06T02:44:09.528Z,2.92
2018-12-06T02:45:09.441Z,2.92
2018-12-06T02:46:09.352Z,2.99
2018-12-06T02:47:09.280Z,3.02
2018-12-06T02:48:09.178Z,2.93
2018-12-06T02:49:09.094Z,2.93
2018-12-06T02:50:09.009Z,3.06
2018-12-06T02:51:08.915Z,3.03
2018-12-06T02:52:08.830Z,3.05
2018-12-06T02:53:08.740Z,2.93
2018-12-06T02:54:08.665Z,2.99
2018-12-06T02:55:08.578Z,3.00
2018-12-06T02:56:08.491Z,3.05
2018-12-06T02:57:08.404Z,3.13
2018-12-06T02:58:08.330Z,3.10
2018-12-06T02:59:08.233Z,3.14
2018-12-06T03:00:08.141Z,3.08
2018-12-06T03:01:08.055Z,3.06
2018-12-06T03:02:07.966Z,3.06
2018-12-06T03:03:07.880Z,3.06
2018-12-06T03:04:07.793Z,3.10
2018-12-06T03:05:07.705Z,3.11
2018-12-06T03:06:07.618Z,3.11
2018-12-06T03:07:07.530Z,3.15
2018-12-06T03:08:07.442Z,3.06
2018-12-06T03:09:07.356Z,3.11
2018-12-06T03:10:07.281Z,3.15
2018-12-06T03:11:07.192Z,3.11
2018-12-06T03:12:07.106Z,3.05
2018-12-06T03:13:07.019Z,3.08
2018-12-06T03:14:06.932Z,3.14
2018-12-06T03:15:06.854Z,3.05
2018-12-06T03:16:06.815Z,3.17
2018-12-06T03:17:06.668Z,3.14
2018-12-06T03:18:06.582Z,3.14
2018-12-06T03:19:06.494Z,3.11
2018-12-06T03:20:06.410Z,3.15
2018-12-06T03:21:06.319Z,3.20
2018-12-06T03:22:06.232Z,3.20
2018-12-06T03:23:06.190Z,3.10
2018-12-06T03:24:06.058Z,3.13
2018-12-06T03:25:05.983Z,3.11
2018-12-06T03:26:05.904Z,3.15
2018-12-06T03:27:05.810Z,3.20
2018-12-06T03:28:05.720Z,3.20
2018-12-06T03:29:05.634Z,3.17
2018-12-06T03:30:05.560Z,3.11
2018-12-06T03:31:05.461Z,3.20
2018-12-06T03:32:05.374Z,3.20
2018-12-06T03:33:05.285Z,3.21
2018-12-06T03:34:05.209Z,3.17
2018-12-06T03:35:05.110Z,3.24
2018-12-06T03:36:05.110Z,3.24
2018-12-06T03:37:04.940Z,3.21
2018-12-06T03:38:04.848Z,3.29
2018-12-06T03:39:04.770Z,3.31
2018-12-06T03:40:04.685Z,3.29
2018-12-06T03:41:04.617Z,3.32
2018-12-06T03:42:04.510Z,3.26
2018-12-06T03:43:04.436Z,3.33
2018-12-06T03:44:04.341Z,3.29
2018-12-06T03:45:04.248Z,3.31
2018-12-06T03:46:04.160Z,3.48
2018-12-06T03:47:04.072Z,3.42
2018-12-06T03:48:03.986Z,3.43
2018-12-06T03:49:03.913Z,3.47
2018-12-06T03:50:03.819Z,3.42
2018-12-06T03:51:03.724Z,3.50
2018-12-06T03:52:03.649Z,3.48
2018-12-06T03:53:03.560Z,3.50
2018-12-06T03:54:03.472Z,3.47
2018-12-06T03:55:03.387Z,3.43
2018-12-06T03:56:03.299Z,3.52
2018-12-06T03:57:03.212Z,3.52
2018-12-06T03:58:03.123Z,3.48
2018-12-06T03:59:03.038Z,3.58
2018-12-06T04:00:02.962Z,3.66
2018-12-06T04:01:02.862Z,3.65
2018-12-06T04:02:02.844Z,3.66
2018-12-06T04:03:02.687Z,3.60
2018-12-06T04:04:02.613Z,3.70
2018-12-06T04:05:02.525Z,3.68
2018-12-06T04:06:02.437Z,3.62
2018-12-06T04:07:02.352Z,3.72
2018-12-06T04:08:02.263Z,3.62
2018-12-06T04:09:02.176Z,3.68
2018-12-06T04:10:02.090Z,3.73
2018-12-06T04:11:02.001Z,3.72
2018-12-06T04:12:01.914Z,3.70
2018-12-06T04:13:01.825Z,3.79
2018-12-06T04:14:01.751Z,3.76
2018-12-06T04:15:01.665Z,3.72
2018-12-06T04:16:01.575Z,3.78
2018-12-06T04:17:01.492Z,3.84
2018-12-06T04:18:01.401Z,3.84
2018-12-06T04:19:01.314Z,3.83
2018-12-06T04:20:01.227Z,3.75
2018-12-06T04:21:01.140Z,3.79
2018-12-06T04:22:01.052Z,3.86
2018-12-06T04:23:00.967Z,3.86
2018-12-06T04:24:00.877Z,3.83
2018-12-06T04:25:00.802Z,3.86
2018-12-06T04:26:00.717Z,3.94
2018-12-06T04:27:00.627Z,3.90
2018-12-06T04:28:00.541Z,3.93
2018-12-06T04:29:00.454Z,3.90
2018-12-06T04:30:00.375Z,3.86
2018-12-06T04:31:00.278Z,3.88
2018-12-06T04:32:00.192Z,3.80
2018-12-06T04:33:00.120Z,3.90
2018-12-06T04:34:00.018Z,3.86
2018-12-06T04:34:59.930Z,3.88
2018-12-06T04:35:59.855Z,3.91
2018-12-06T04:36:59.769Z,3.94
2018-12-06T04:37:59.678Z,3.88
2018-12-06T04:38:59.596Z,3.93
2018-12-06T04:39:59.505Z,4.00
2018-12-06T04:40:59.417Z,3.96
2018-12-06T04:41:59.342Z,3.96
2018-12-06T04:42:59.244Z,3.91
2018-12-06T04:43:59.156Z,3.97
2018-12-06T04:44:59.081Z,3.94
2018-12-06T04:45:58.993Z,3.98
2018-12-06T04:46:58.905Z,3.98
2018-12-06T04:47:58.828Z,3.98
2018-12-06T04:48:58.744Z,4.04
2018-12-06T04:49:58.645Z,3.90
2018-12-06T04:50:58.555Z,4.04
2018-12-06T04:51:58.469Z,3.98
2018-12-06T04:52:58.380Z,4.00
2018-12-06T04:53:58.305Z,3.96
2018-12-06T04:54:58.207Z,4.00
2018-12-06T04:55:58.133Z,3.98
2018-12-06T04:56:58.044Z,4.00
2018-12-06T04:57:57.964Z,4.05
2018-12-06T04:58:57.870Z,4.00
2018-12-06T04:59:57.787Z,3.93
2018-12-06T05:00:57.697Z,4.02
2018-12-06T05:01:57.607Z,3.90
2018-12-06T05:02:57.530Z,4.04
2018-12-06T05:03:57.433Z,3.97
2018-12-06T05:04:57.361Z,3.96
2018-12-06T05:05:57.270Z,4.00
2018-12-06T05:06:57.183Z,3.98
2018-12-06T05:07:57.095Z,4.05
2018-12-06T05:08:57.007Z,3.97
2018-12-06T05:09:56.921Z,4.02
2018-12-06T05:10:56.832Z,4.09
2018-12-06T05:11:56.746Z,4.02
2018-12-06T05:12:56.659Z,3.97
2018-12-06T05:13:56.585Z,3.98
2018-12-06T05:14:56.497Z,4.05
2018-12-06T05:15:56.408Z,4.00
2018-12-06T05:16:56.322Z,4.04
2018-12-06T05:17:56.233Z,4.02
2018-12-06T05:18:56.149Z,4.11
2018-12-06T05:19:56.059Z,4.00
2018-12-06T05:20:55.972Z,4.12
2018-12-06T05:21:55.886Z,4.06
2018-12-06T05:22:55.808Z,4.00
2018-12-06T05:23:55.722Z,4.08
2018-12-06T05:24:55.635Z,4.00
2018-12-06T05:25:55.552Z,4.11
2018-12-06T05:26:55.459Z,4.04
2018-12-06T05:27:55.377Z,4.08
2018-12-06T05:28:55.284Z,3.93
2018-12-06T05:29:55.201Z,4.09
2018-12-06T05:30:55.122Z,4.09
2018-12-06T05:31:55.048Z,4.02
2018-12-06T05:32:54.948Z,4.11
2018-12-06T05:33:54.860Z,4.09
2018-12-06T05:34:54.773Z,4.04
2018-12-06T05:35:54.685Z,4.16
2018-12-06T05:36:54.597Z,4.06
2018-12-06T05:37:54.509Z,4.09
2018-12-06T05:38:54.424Z,4.14
2018-12-06T05:39:54.337Z,4.14
2018-12-06T05:40:54.261Z,4.15
2018-12-06T05:41:54.174Z,4.09
2018-12-06T05:42:54.130Z,4.18
2018-12-06T05:43:54.004Z,4.20
2018-12-06T05:44:53.911Z,4.23
2018-12-06T05:45:53.826Z,4.16
2018-12-06T05:46:53.736Z,4.20
2018-12-06T05:47:53.660Z,4.16
2018-12-06T05:48:53.574Z,4.08
2018-12-06T05:49:53.486Z,4.12
2018-12-06T05:50:53.399Z,4.37
2018-12-06T05:51:53.311Z,4.20
2018-12-06T05:52:53.225Z,4.23
2018-12-06T05:53:53.139Z,4.22
2018-12-06T05:54:53.049Z,4.24
2018-12-06T05:55:52.963Z,4.23
2018-12-06T05:56:52.888Z,4.26
2018-12-06T05:57:52.801Z,4.18
2018-12-06T05:58:52.712Z,4.26
2018-12-06T05:59:52.629Z,4.24
2018-12-06T06:00:52.537Z,4.30
2018-12-06T06:01:52.451Z,4.29
2018-12-06T06:02:52.363Z,4.27
2018-12-06T06:03:52.287Z,4.26
2018-12-06T06:04:52.200Z,4.26
2018-12-06T06:05:52.118Z,4.23
2018-12-06T06:06:52.026Z,4.30
2018-12-06T06:07:51.939Z,4.37
2018-12-06T06:08:51.851Z,4.29
2018-12-06T06:09:51.763Z,4.37
2018-12-06T06:10:51.688Z,4.34
2018-12-06T06:11:51.601Z,4.41
2018-12-06T06:12:51.519Z,4.45
2018-12-06T06:13:51.441Z,4.37
2018-12-06T06:14:51.339Z,4.34
2018-12-06T06:15:51.252Z,4.40
2018-12-06T06:16:51.164Z,4.26
2018-12-06T06:17:51.089Z,4.36
2018-12-06T06:18:51.002Z,4.37
2018-12-06T06:19:50.914Z,4.36
2018-12-06T06:20:50.828Z,4.32
2018-12-06T06:21:50.739Z,4.34
2018-12-06T06:22:50.653Z,4.37
2018-12-06T06:23:50.565Z,4.32
2018-12-06T06:24:50.484Z,4.32
2018-12-06T06:25:50.404Z,4.33
2018-12-06T06:26:50.315Z,4.36
2018-12-06T06:27:50.228Z,4.41
2018-12-06T06:28:50.140Z,4.44
2018-12-06T06:29:50.054Z,4.44
2018-12-06T06:30:49.965Z,4.42
2018-12-06T06:31:49.880Z,4.42
2018-12-06T06:32:49.804Z,4.44
2018-12-06T06:33:49.718Z,4.42
2018-12-06T06:34:49.650Z,4.42
2018-12-06T06:35:49.544Z,4.33
2018-12-06T06:36:49.456Z,4.34
2018-12-06T06:37:49.382Z,4.41
2018-12-06T06:38:49.279Z,4.44
2018-12-06T06:39:49.193Z,4.42
2018-12-06T06:40:49.117Z,4.42
2018-12-06T06:41:49.029Z,4.40
2018-12-06T06:42:48.941Z,4.45
2018-12-06T06:43:48.858Z,4.40
2018-12-06T06:44:48.767Z,4.44
2018-12-06T06:45:48.679Z,4.42
2018-12-06T06:46:48.595Z,4.45
2018-12-06T06:47:48.517Z,4.52
2018-12-06T06:48:48.430Z,4.42
2018-12-06T06:49:48.343Z,4.51
2018-12-06T06:50:48.262Z,4.50
2018-12-06T06:51:48.168Z,4.41
2018-12-06T06:52:48.081Z,4.37
2018-12-06T06:53:47.995Z,4.50
2018-12-06T06:54:47.930Z,4.45
2018-12-06T06:55:47.833Z,4.45
2018-12-06T06:56:47.743Z,4.47
2018-12-06T06:57:47.657Z,4.54
2018-12-06T06:58:47.568Z,4.42
2018-12-06T06:59:47.481Z,4.45
2018-12-06T07:00:47.394Z,4.47
2018-12-06T07:01:47.320Z,4.42
2018-12-06T07:02:47.231Z,4.48
2018-12-06T07:03:47.144Z,4.52
2018-12-06T07:04:47.058Z,4.51
2018-12-06T07:05:46.969Z,4.52
2018-12-06T07:06:46.884Z,4.50
2018-12-06T07:07:46.797Z,4.51
2018-12-06T07:08:46.719Z,4.51
2018-12-06T07:09:46.634Z,4.51
2018-12-06T07:10:47.271Z,4.50
2018-12-06T07:11:46.459Z,4.52
2018-12-06T07:12:46.370Z,4.51
2018-12-06T07:13:46.283Z,4.50
2018-12-06T07:14:46.211Z,4.52
2018-12-06T07:15:46.120Z,4.54
2018-12-06T07:16:46.035Z,4.51
2018-12-06T07:17:45.962Z,4.65
2018-12-06T07:18:45.864Z,4.58
2018-12-06T07:19:45.771Z,4.65
2018-12-06T07:20:45.683Z,4.66
2018-12-06T07:21:45.597Z,4.62
2018-12-06T07:22:45.512Z,4.60
2018-12-06T07:23:45.435Z,4.69
2018-12-06T07:24:45.347Z,4.59
2018-12-06T07:25:46.491Z,4.70
2018-12-06T07:26:45.294Z,4.70
2018-12-06T07:27:45.084Z,4.59
2018-12-06T07:28:45.009Z,4.78
2018-12-06T07:29:44.910Z,4.69
2018-12-06T07:30:44.839Z,4.66
2018-12-06T07:31:44.747Z,4.77
2018-12-06T07:32:44.661Z,4.75
2018-12-06T07:33:44.572Z,4.67
2018-12-06T07:34:44.486Z,4.65
2018-12-06T07:35:44.399Z,4.75
2018-12-06T07:36:44.315Z,4.73
2018-12-06T07:37:44.237Z,4.77
2018-12-06T07:38:44.151Z,4.67
2018-12-06T07:39:44.061Z,4.75
2018-12-06T07:40:43.973Z,4.73
2018-12-06T07:41:43.886Z,4.72
2018-12-06T07:42:43.799Z,4.75
2018-12-06T07:43:43.712Z,4.75
2018-12-06T07:44:43.637Z,4.70
2018-12-06T07:45:43.548Z,4.75
2018-12-06T07:46:43.462Z,4.75
2018-12-06T07:47:43.373Z,4.80
2018-12-06T07:48:43.291Z,4.75
2018-12-06T07:49:43.200Z,4.80
2018-12-06T07:50:43.112Z,4.82
2018-12-06T07:51:43.037Z,4.84
2018-12-06T07:52:42.948Z,4.88
2018-12-06T07:53:42.862Z,4.84
2018-12-06T07:54:42.776Z,4.92
2018-12-06T07:55:42.699Z,4.84
2018-12-06T07:56:42.605Z,4.82
2018-12-06T07:57:42.513Z,4.86
2018-12-06T07:58:42.437Z,4.88
2018-12-06T07:59:42.350Z,4.91
2018-12-06T08:00:42.265Z,4.92
2018-12-06T08:01:42.175Z,4.91
2018-12-06T08:02:42.088Z,4.89
2018-12-06T08:03:42.001Z,4.89
2018-12-06T08:04:41.924Z,5.00
2018-12-06T08:05:41.842Z,5.02
2018-12-06T08:06:41.751Z,5.04
2018-12-06T08:07:41.664Z,5.15
2018-12-06T08:08:41.589Z,5.10
2018-12-06T08:09:41.489Z,5.13
2018-12-06T08:10:41.402Z,5.18
2018-12-06T08:11:41.327Z,5.06
2018-12-06T08:12:41.240Z,5.12
2018-12-06T08:13:41.152Z,5.04
2018-12-06T08:14:41.065Z,5.13
2018-12-06T08:15:40.990Z,5.13
2018-12-06T08:16:40.890Z,5.09
2018-12-06T08:17:40.803Z,5.13
2018-12-06T08:18:40.728Z,5.09
2018-12-06T08:19:40.640Z,5.15
2018-12-06T08:20:40.554Z,5.15
2018-12-06T08:21:40.466Z,5.18
2018-12-06T08:22:40.378Z,5.13
2018-12-06T08:23:40.293Z,5.10
2018-12-06T08:24:40.216Z,5.20
2018-12-06T08:25:40.128Z,5.17
2018-12-06T08:26:40.041Z,5.22
2018-12-06T08:27:39.953Z,5.18
2018-12-06T08:28:39.867Z,5.20
2018-12-06T08:29:39.778Z,5.07
2018-12-06T08:30:39.694Z,5.13
2018-12-06T08:31:39.617Z,5.21
2018-12-06T08:32:39.529Z,5.27
2018-12-06T08:33:39.446Z,5.18
2018-12-06T08:34:39.354Z,5.18
2018-12-06T08:35:39.268Z,5.15
2018-12-06T08:36:39.180Z,5.22
2018-12-06T08:37:39.117Z,5.18
2018-12-06T08:38:39.019Z,5.13
2018-12-06T08:39:38.931Z,5.21
2018-12-06T08:40:38.846Z,5.10
2018-12-06T08:41:38.771Z,5.18
2018-12-06T08:42:45.475Z,5.21
2018-12-06T08:43:38.600Z,5.28
2018-12-06T08:44:38.505Z,5.25
2018-12-06T08:45:38.418Z,5.22
2018-12-06T08:46:38.330Z,5.17
2018-12-06T08:47:38.243Z,5.27
2018-12-06T08:48:38.156Z,5.25
2018-12-06T08:49:38.081Z,5.21
2018-12-06T08:50:37.995Z,5.28
2018-12-06T08:51:37.907Z,5.25
2018-12-06T08:52:37.820Z,5.38
2018-12-06T08:53:37.746Z,5.39
2018-12-06T08:54:37.645Z,5.46
2018-12-06T08:55:37.569Z,5.40
2018-12-06T08:56:37.481Z,5.39
2018-12-06T08:57:37.396Z,5.36
2018-12-06T08:58:37.306Z,5.40
2018-12-06T08:59:37.235Z,5.35
2018-12-06T09:00:37.145Z,5.45
2018-12-06T09:01:37.057Z,5.42
2018-12-06T09:02:36.972Z,5.53
2018-12-06T09:03:36.882Z,5.48
2018-12-06T09:04:37.595Z,5.45
2018-12-06T09:05:36.708Z,5.58
2018-12-06T09:06:36.633Z,5.61
2018-12-06T09:07:36.546Z,5.57
2018-12-06T09:08:36.457Z,5.60
2018-12-06T09:09:36.376Z,5.51
2018-12-06T09:10:36.295Z,5.57
2018-12-06T09:11:36.208Z,5.58
2018-12-06T09:12:36.122Z,5.57
2018-12-06T09:13:36.033Z,5.67
2018-12-06T09:14:35.961Z,5.68
2018-12-06T09:15:35.858Z,5.65
2018-12-06T09:16:35.799Z,5.61
2018-12-06T09:17:35.700Z,5.71
2018-12-06T09:18:35.608Z,5.72
2018-12-06T09:19:35.558Z,5.67
2018-12-06T09:20:35.434Z,5.75
2018-12-06T09:21:35.360Z,5.64
2018-12-06T09:22:35.273Z,5.74
2018-12-06T09:23:35.207Z,5.65
2018-12-06T09:24:35.097Z,5.76
2018-12-06T09:25:35.010Z,5.71
2018-12-06T09:26:34.934Z,5.68
2018-12-06T09:27:34.848Z,5.72
2018-12-06T09:28:34.760Z,5.63
2018-12-06T09:29:34.674Z,5.76
2018-12-06T09:30:34.603Z,5.74
2018-12-06T09:31:34.510Z,5.74
2018-12-06T09:32:34.423Z,5.83
2018-12-06T09:33:34.335Z,5.82
2018-12-06T09:34:34.248Z,5.81
2018-12-06T09:35:34.174Z,5.86
2018-12-06T09:36:34.089Z,5.90
2018-12-06T09:37:34.000Z,5.85
2018-12-06T09:38:33.911Z,5.94
2018-12-06T09:39:33.825Z,5.96
2018-12-06T09:40:33.750Z,5.90
2018-12-06T09:41:33.661Z,5.86
2018-12-06T09:42:34.650Z,5.89
2018-12-06T09:43:33.487Z,5.91
2018-12-06T09:44:33.400Z,5.94
2018-12-06T09:45:33.325Z,5.93
2018-12-06T09:46:33.254Z,5.97
2018-12-06T09:47:33.152Z,5.97
2018-12-06T09:48:33.061Z,5.99
2018-12-06T09:49:32.990Z,5.97
2018-12-06T09:50:32.900Z,5.94
2018-12-06T09:51:32.813Z,6.04
2018-12-06T09:52:32.726Z,6.08
2018-12-06T09:53:32.637Z,6.06
2018-12-06T09:54:32.563Z,6.04
2018-12-06T09:55:32.475Z,6.06
2018-12-06T09:56:32.389Z,6.08
2018-12-06T09:57:32.302Z,6.00
2018-12-06T09:58:32.214Z,6.12
2018-12-06T09:59:32.152Z,6.09
2018-12-06T10:00:32.054Z,6.21
2018-12-06T10:01:31.966Z,6.19
2018-12-06T10:02:31.879Z,6.17
2018-12-06T10:03:31.805Z,6.15
2018-12-06T10:04:31.714Z,6.17
2018-12-06T10:05:31.627Z,6.08
2018-12-06T10:06:31.540Z,6.17
2018-12-06T10:07:31.453Z,6.25
2018-12-06T10:08:31.379Z,6.22
2018-12-06T10:09:31.290Z,6.19
2018-12-06T10:10:31.203Z,6.25
2018-12-06T10:11:31.117Z,6.21
2018-12-06T10:12:31.040Z,6.22
2018-12-06T10:13:30.958Z,6.18
2018-12-06T10:14:30.878Z,6.27
2018-12-06T10:15:30.779Z,6.30
2018-12-06T10:16:30.692Z,6.28
2018-12-06T10:17:30.616Z,6.21
2018-12-06T10:18:30.530Z,6.30
2018-12-06T10:19:30.441Z,6.17
2018-12-06T10:20:30.361Z,6.25
2018-12-06T10:21:30.280Z,6.21
2018-12-06T10:22:30.191Z,6.22
2018-12-06T10:23:30.105Z,6.31
2018-12-06T10:24:30.018Z,6.19
2018-12-06T10:25:29.941Z,6.31
2018-12-06T10:26:29.855Z,6.25
2018-12-06T10:27:29.767Z,6.28
2018-12-06T10:28:29.681Z,6.27
2018-12-06T10:29:29.593Z,6.34
2018-12-06T10:30:29.531Z,6.22
2018-12-06T10:31:29.433Z,6.33
2018-12-06T10:32:29.344Z,6.27
2018-12-06T10:33:29.259Z,6.14
2018-12-06T10:34:29.169Z,6.14
2018-12-06T10:35:29.093Z,6.31
2018-12-06T10:36:29.008Z,6.25
2018-12-06T10:37:28.918Z,6.33
2018-12-06T10:38:28.831Z,6.33
2018-12-06T10:39:28.757Z,6.22
2018-12-06T10:40:28.668Z,6.30
2018-12-06T10:41:28.582Z,6.36
2018-12-06T10:42:28.493Z,6.25
2018-12-06T10:43:28.418Z,6.34
2018-12-06T10:44:28.332Z,6.41
2018-12-06T10:45:28.243Z,6.36
2018-12-06T10:46:28.157Z,6.43
2018-12-06T10:47:28.082Z,6.36
2018-12-06T10:48:27.995Z,6.44
2018-12-06T10:49:27.907Z,6.38
2018-12-06T10:50:27.819Z,6.52
2018-12-06T10:51:27.733Z,6.48
2018-12-06T10:52:27.658Z,6.44
2018-12-06T10:53:27.570Z,6.51
2018-12-06T10:54:27.484Z,6.52
2018-12-06T10:55:27.394Z,6.52
2018-12-06T10:56:27.320Z,6.56
2018-12-06T10:57:27.234Z,6.55
2018-12-06T10:58:27.146Z,6.58
2018-12-06T10:59:27.081Z,6.67
2018-12-06T11:00:26.987Z,6.70
2018-12-06T11:01:26.896Z,6.61
2018-12-06T11:02:26.810Z,6.52
2018-12-06T11:03:26.721Z,6.59
2018-12-06T11:04:26.646Z,6.56
2018-12-06T11:05:26.563Z,6.59
2018-12-06T11:06:26.471Z,6.61
2018-12-06T11:07:26.388Z,6.61
2018-12-06T11:08:26.310Z,6.61
2018-12-06T11:09:26.222Z,6.76
2018-12-06T11:10:26.136Z,6.80
2018-12-06T11:11:26.578Z,6.79
2018-12-06T11:12:25.972Z,6.80
2018-12-06T11:13:25.885Z,6.87
2018-12-06T11:14:25.811Z,6.79
2018-12-06T11:15:25.711Z,6.85
2018-12-06T11:16:25.637Z,6.89
2018-12-06T11:17:25.547Z,6.88
2018-12-06T11:18:25.461Z,6.87
2018-12-06T11:19:25.374Z,6.89
2018-12-06T11:20:25.299Z,6.84
2018-12-06T11:21:25.211Z,6.70
2018-12-06T11:22:25.128Z,6.80
2018-12-06T11:23:25.037Z,6.77
2018-12-06T11:24:24.969Z,6.76
2018-12-06T11:25:24.876Z,6.79
2018-12-06T11:26:24.790Z,6.89
2018-12-06T11:27:24.699Z,6.85
2018-12-06T11:28:24.626Z,6.84
2018-12-06T11:29:24.537Z,6.88
2018-12-06T11:30:24.461Z,6.89
2018-12-06T11:31:24.366Z,6.88
2018-12-06T11:32:24.287Z,6.88
2018-12-06T11:33:24.199Z,6.94
2018-12-06T11:34:24.113Z,6.98
2018-12-06T11:35:24.038Z,6.98
2018-12-06T11:36:23.950Z,7.02
2018-12-06T11:37:23.864Z,7.05
2018-12-06T11:38:23.781Z,6.98
2018-12-06T11:39:23.700Z,6.99
2018-12-06T11:40:23.613Z,6.99
2018-12-06T11:41:23.540Z,7.03
2018-12-06T11:42:23.439Z,6.99
2018-12-06T11:43:23.352Z,7.06
2018-12-06T11:44:23.277Z,7.03
2018-12-06T11:45:23.195Z,7.12
2018-12-06T11:46:23.101Z,7.09
2018-12-06T11:47:23.040Z,6.99
2018-12-06T11:48:26.863Z,7.13
2018-12-06T11:49:22.857Z,7.09
2018-12-06T11:50:22.765Z,7.02
2018-12-06T11:51:22.690Z,7.02
2018-12-06T11:52:22.602Z,7.02
2018-12-06T11:53:22.521Z,7.05
2018-12-06T11:54:22.428Z,6.98
2018-12-06T11:55:22.433Z,7.02
2018-12-06T11:56:22.265Z,7.02
2018-12-06T11:57:22.178Z,7.13
2018-12-06T11:58:22.103Z,7.07
2018-12-06T11:59:22.016Z,7.12
2018-12-06T12:00:21.927Z,6.97
2018-12-06T12:01:21.842Z,7.07
2018-12-06T12:02:21.766Z,7.13
2018-12-06T12:03:21.678Z,7.13
2018-12-06T12:04:21.591Z,7.21
2018-12-06T12:05:21.517Z,7.25
2018-12-06T12:06:21.430Z,7.39
2018-12-06T12:07:21.342Z,7.34
2018-12-06T12:08:21.254Z,7.30
2018-12-06T12:09:21.179Z,7.34
2018-12-06T12:10:21.092Z,7.42
2018-12-06T12:11:21.005Z,7.30
2018-12-06T12:12:20.917Z,7.35
2018-12-06T12:13:20.842Z,7.37
2018-12-06T12:14:20.754Z,7.42
2018-12-06T12:15:20.679Z,7.39
2018-12-06T12:16:20.580Z,7.42
2018-12-06T12:17:20.519Z,7.43
2018-12-06T12:18:20.502Z,7.40
2018-12-06T12:19:20.329Z,7.45
2018-12-06T12:20:20.258Z,7.46
2018-12-06T12:21:20.168Z,7.52
2018-12-06T12:22:20.080Z,7.46
2018-12-06T12:23:19.994Z,7.49
2018-12-06T12:24:19.922Z,7.55
2018-12-06T12:25:19.830Z,7.55
2018-12-06T12:26:19.744Z,7.60
2018-12-06T12:27:19.657Z,7.53
2018-12-06T12:28:19.581Z,7.60
2018-12-06T12:29:19.494Z,7.60
2018-12-06T12:30:19.431Z,7.53
2018-12-06T12:31:19.333Z,7.57
2018-12-06T12:32:19.244Z,7.49
2018-12-06T12:33:19.156Z,7.50
2018-12-06T12:34:19.083Z,7.52
2018-12-06T12:35:18.997Z,7.52
2018-12-06T12:36:18.913Z,7.48
2018-12-06T12:37:18.820Z,7.50
2018-12-06T12:38:18.745Z,7.52
2018-12-06T12:39:18.673Z,7.55
2018-12-06T12:40:18.571Z,7.58
2018-12-06T12:41:18.497Z,7.60
2018-12-06T12:42:18.407Z,7.50
2018-12-06T12:43:18.324Z,7.55
2018-12-06T12:44:18.233Z,7.52
2018-12-06T12:45:18.175Z,7.40
2018-12-06T12:46:18.070Z,7.53
2018-12-06T12:47:17.983Z,7.50
2018-12-06T12:48:17.907Z,7.55
2018-12-06T12:49:17.824Z,7.46
2018-12-06T12:50:17.733Z,7.49
2018-12-06T12:51:17.647Z,7.50
2018-12-06T12:52:17.571Z,7.48
2018-12-06T12:53:17.487Z,7.49
2018-12-06T12:54:17.402Z,7.48
2018-12-06T12:55:17.323Z,7.46
2018-12-06T12:56:17.234Z,7.52
2018-12-06T12:57:17.148Z,7.46
2018-12-06T12:58:17.073Z,7.48
2018-12-06T12:59:16.991Z,7.45
2018-12-06T13:00:16.905Z,7.49
2018-12-06T13:01:16.832Z,7.48
2018-12-06T13:02:16.734Z,7.43
2018-12-06T13:03:16.648Z,7.43
2018-12-06T13:04:16.572Z,7.49
2018-12-06T13:05:16.473Z,7.40
2018-12-06T13:06:16.402Z,7.37
2018-12-06T13:07:16.310Z,7.37
2018-12-06T13:08:16.223Z,7.43
2018-12-06T13:09:16.137Z,7.39
2018-12-06T13:10:16.061Z,7.43
2018-12-06T13:11:15.973Z,7.43
2018-12-06T13:12:15.885Z,7.52
2018-12-06T13:13:15.812Z,7.52
2018-12-06T13:14:15.724Z,7.48
2018-12-06T13:15:15.637Z,7.46
2018-12-06T13:16:15.565Z,7.43
2018-12-06T13:17:15.474Z,7.43